Latest Weather Observations for Shepparton

IDV60801

Issued at 10:31 pm EST Thursday 26 May 2016 (issued every 30 minutes, with the page automatically refreshed every 10 minutes)

About weather observations | Map of weather stations | Latest weather observations for VIC | Other Formats
Station Details ID: 081125 Name: SHEPPARTON AIRPORT Lat: -36.43 Lon: 145.39 Height: 113.9 m
Data from the previous 72 hours. | See also: Recent months at Shepparton
Date/Time
EST
Temp
°C
App
Temp
°C
Dew
Point
Rel
Hum
%
Delta-T
°C
Wind Press
QNH
hPa
Press
MSL
hPa
Rain
since 9 am
mm
Dir
 
Spd
km/h
Gust
km/h
Spd
kts
Gust
kts
26/10:30pm 7.9 3.8 6.2 89 0.8 WSW 17 20 9 11 1007.5 1007.6 1.8
26/10:00pm 8.1 4.4 6.4 89 0.8 WSW 15 19 8 10 1007.5 1007.6 1.8
26/09:30pm 8.5 4.6 7.1 91 0.7 WSW 17 20 9 11 1007.4 1007.5 1.8
26/09:00pm 8.7 5.3 7.5 92 0.6 WSW 15 19 8 10 1007.2 1007.3 1.8
26/08:30pm 9.1 6.1 7.9 92 0.6 WSW 13 17 7 9 1006.9 1007.0 1.8
26/08:00pm 9.7 6.8 8.1 90 0.8 WSW 13 19 7 10 1006.7 1006.8 1.8
26/07:30pm 9.7 6.8 8.1 90 0.8 WSW 13 15 7 8 1006.5 1006.6 1.8
26/07:00pm 9.9 6.9 7.7 86 1.1 SW 13 17 7 9 1006.2 1006.2 1.8
26/06:30pm 10.6 6.5 7.8 83 1.4 SSW 19 30 10 16 1005.9 1005.9 1.8
26/06:00pm 11.0 6.3 7.7 80 1.6 SSW 22 32 12 17 1005.3 1005.3 1.8
26/05:30pm 11.1 7.2 8.5 84 1.3 SSW 19 24 10 13 1004.8 1004.8 1.8
26/05:00pm 11.4 6.1 8.4 82 1.5 SSW 26 37 14 20 1004.4 1004.4 1.8
26/04:30pm 11.8 8.5 9.5 86 1.2 SW 17 24 9 13 1004.0 1004.0 1.8
26/04:00pm 11.9 7.9 9.1 83 1.4 SSW 20 28 11 15 1003.6 1003.6 1.8
26/03:30pm 12.0 6.8 9.0 82 1.5 SSW 26 41 14 22 1003.2 1003.2 1.8
26/03:21pm 12.4 8.7 10.3 87 1.1 SW 20 39 11 21 1003.1 1003.1 1.8
26/03:00pm 13.1 10.1 10.5 84 1.4 WSW 17 20 9 11 1002.8 1002.8 0.6
26/02:30pm 13.4 9.2 9.8 79 1.9 W 22 30 12 16 1002.6 1002.6 0.4
26/02:00pm 13.5 12.1 10.9 84 1.4 WSW 9 15 5 8 1002.5 1002.5 0.4
26/01:39pm 12.4 9.5 11.0 91 0.7 SW 17 24 9 13 1002.9 1002.9 0.4
26/01:30pm 12.3 9.5 11.2 93 0.6 SW 17 24 9 13 1003.0 1003.0 0.4
26/01:00pm 12.1 9.1 10.5 90 0.8 WSW 17 24 9 13 1003.2 1003.2 0.4
26/12:30pm 12.3 9.4 10.9 91 0.7 W 17 22 9 12 1003.2 1003.2 0.4
26/12:00pm 12.2 9.8 11.3 94 0.5 WSW 15 20 8 11 1003.4 1003.4 0.4
26/11:30am 12.0 8.8 11.1 94 0.5 W 19 24 10 13 1003.7 1003.7 0.4
26/11:00am 11.9 9.6 11.7 99 0.1 W 15 20 8 11 1003.9 1003.9 0.4
26/10:30am 10.8 8.5 10.6 99 0.1 WNW 13 20 7 11 1004.2 1004.2 0.4
26/10:00am 10.6 9.7 10.6 100 0.0 N 6 17 3 9 1004.3 1004.3 0.4
26/09:30am 10.3 8.7 10.1 99 0.1 N 9 11 5 6 1004.3 1004.3 0.4
26/09:23am 10.3 8.7 10.3 100 0.0 N 9 11 5 6 1004.0 1004.0 0.4
26/09:00am 10.1 8.1 10.0 99 0.1 N 11 15 6 8 1004.4 1004.4 18.6
26/08:58am 10.1 8.5 10.1 100 0.0 N 9 15 5 8 1004.4 1004.4 18.6
26/08:30am 10.0 7.9 9.9 99 0.1 NNE 11 17 6 9 1004.4 1004.4 18.2
26/08:00am 9.8 6.9 9.7 99 0.1 NNE 15 17 8 9 1004.3 1004.3 17.0
26/07:30am 9.7 7.6 9.6 99 0.1 NNE 11 15 6 8 1004.3 1004.3 16.0
26/07:00am 9.6 7.8 9.5 99 0.1 NNE 9 13 5 7 1004.6 1004.6 14.6
26/06:30am 9.5 7.7 9.4 99 0.0 NNE 9 15 5 8 1004.8 1004.8 13.8
26/06:00am 9.4 7.2 9.3 99 0.0 NNE 11 17 6 9 1005.1 1005.1 12.4
26/05:36am 9.3 6.7 9.2 99 0.0 NE 13 17 7 9 1005.3 1005.3 10.8
26/05:30am 9.3 6.7 9.2 99 0.0 NE 13 19 7 10 1005.4 1005.4 10.4
26/05:12am 9.2 6.5 9.1 99 0.0 NE 13 19 7 10 1005.6 1005.6 9.0
26/05:00am 9.2 6.5 9.1 99 0.0 NE 13 17 7 9 1005.7 1005.7 8.4
26/04:44am 9.2 6.2 9.1 99 0.0 NNE 15 22 8 12 1005.8 1005.8 7.4
26/04:30am 9.2 6.5 9.1 99 0.0 NE 13 19 7 10 1006.1 1006.1 6.6
26/04:29am 9.2 6.5 9.1 99 0.0 NNE 13 17 7 9 1006.1 1006.1 6.6
26/04:19am 9.2 6.5 9.1 99 0.0 NNE 13 20 7 11 1006.2 1006.2 6.6
26/04:00am 9.2 6.5 9.1 99 0.0 NNE 13 17 7 9 1006.6 1006.7 6.0
26/03:30am 9.2 6.5 9.1 99 0.0 NNE 13 17 7 9 1006.9 1007.0 5.8
26/03:25am 9.2 6.5 9.1 99 0.0 NNE 13 20 7 11 1007.0 1007.1 5.8
26/03:00am 9.2 6.2 9.1 99 0.0 NNE 15 22 8 12 1007.4 1007.5 5.8
26/02:56am 9.1 6.0 9.0 99 0.0 NNE 15 22 8 12 1007.4 1007.5 5.8
26/02:39am 9.0 6.3 8.9 99 0.0 NE 13 19 7 10 1007.7 1007.8 5.8
26/02:30am 9.0 6.3 8.9 99 0.0 NE 13 17 7 9 1007.8 1007.9 5.8
26/02:00am 9.0 6.3 8.9 99 0.0 NE 13 19 7 10 1008.1 1008.2 5.8
26/01:45am 9.0 6.3 8.9 99 0.0 NNE 13 17 7 9 1008.4 1008.5 5.6
26/01:30am 9.0 5.5 8.9 99 0.0 NNE 17 20 9 11 1008.7 1008.8 5.4
26/01:00am 9.3 6.7 9.2 99 0.0 NNE 13 19 7 10 1009.0 1009.1 4.2
26/12:45am 9.4 6.8 9.3 99 0.0 N 13 19 7 10 1009.2 1009.3 3.6
26/12:37am 9.4 6.4 9.3 99 0.0 N 15 19 8 10 1009.8 1009.9 3.4
26/12:30am 9.5 6.2 9.4 99 0.0 NNE 17 28 9 15 1009.5 1009.6 3.2
26/12:05am 9.5 6.9 9.4 99 0.0 N 13 17 7 9 1010.2 1010.2 2.8
26/12:00am 9.5 6.5 9.4 99 0.0 N 15 20 8 11 1010.4 1010.4 2.6
 
Date/Time
EST
Temp
°C
App
Temp
°C
Dew
Point
Rel
Hum
%
Delta-T
°C
Wind Press
QNH
hPa
Press
MSL
hPa
Rain
since 9 am
mm
Dir
 
Spd
km/h
Gust
km/h
Spd
kts
Gust
kts
25/11:54pm 9.6 6.7 9.5 99 0.1 N 15 22 8 12 1010.4 1010.4 2.4
25/11:43pm 9.6 6.2 9.3 98 0.1 N 17 22 9 12 1010.2 1010.2 1.8
25/11:30pm 10.0 6.0 9.2 95 0.4 N 20 28 11 15 1010.3 1010.3 1.0
25/11:00pm 10.4 6.1 9.2 92 0.6 N 22 33 12 18 1010.3 1010.3 0.8
25/10:30pm 10.7 8.1 9.5 92 0.6 NNE 13 19 7 10 1010.7 1010.7 0.6
25/10:00pm 11.0 8.3 9.1 88 1.0 N 13 17 7 9 1011.1 1011.1 0.6
25/09:30pm 10.7 10.4 10.2 97 0.3 E 2 15 1 8 1011.6 1011.6 0.4
25/09:00pm 10.8 10.9 10.2 96 0.3 CALM 0 2 0 1 1011.9 1011.9 0.4
25/08:30pm 10.9 11.0 10.3 96 0.3 CALM 0 0 0 0 1012.0 1012.0 0.4
25/08:00pm 10.8 9.5 9.9 94 0.5 N 7 9 4 5 1011.9 1011.9 0.4
25/07:30pm 11.0 8.8 9.4 90 0.8 NW 11 17 6 9 1012.2 1012.2 0.4
25/07:00pm 11.8 7.5 9.4 85 1.2 NNW 22 35 12 19 1012.6 1012.6 0.4
25/06:30pm 12.9 10.2 9.0 77 2.0 N 13 19 7 10 1012.0 1012.0 0.2
25/06:00pm 12.7 9.7 9.2 79 1.8 NNE 15 19 8 10 1011.1 1011.1 0.2
25/05:30pm 12.7 9.7 9.2 79 1.8 NE 15 20 8 11 1011.2 1011.2 0.2
25/05:00pm 13.4 9.8 8.5 72 2.5 N 17 22 9 12 1011.9 1011.9 0.0
25/04:30pm 14.4 10.6 7.7 64 3.3 N 17 22 9 12 1012.6 1012.6 0.0
25/04:00pm 14.7 11.7 7.5 62 3.6 N 13 19 7 10 1012.9 1012.9 0.0
25/03:30pm 15.0 10.6 7.5 61 3.7 NNW 20 28 11 15 1012.9 1012.9 0.0
25/03:00pm 15.3 11.9 7.8 61 3.8 NNW 15 20 8 11 1013.1 1013.1 0.0
25/02:30pm 15.5 10.3 7.3 58 4.1 NNW 24 35 13 19 1013.1 1013.1 0.0
25/02:00pm 15.5 12.3 8.3 62 3.7 NNW 15 20 8 11 1013.3 1013.3 0.0
25/01:30pm 15.5 11.2 7.8 60 3.9 N 20 28 11 15 1013.6 1013.7 0.0
25/01:00pm 15.4 11.5 8.6 64 3.5 N 19 26 10 14 1014.1 1014.2 0.0
25/12:30pm 14.7 11.4 9.5 71 2.7 N 17 26 9 14 1014.9 1015.0 0.0
25/12:00pm 14.0 11.0 9.4 74 2.4 NNE 15 24 8 13 1015.5 1015.6 0.0
25/11:30am 12.8 9.4 9.1 78 1.9 NNE 17 20 9 11 1016.3 1016.4 0.0
25/11:00am 11.8 8.8 9.4 85 1.2 NNE 15 20 8 11 1017.1 1017.2 0.0
25/10:30am 10.6 7.9 9.0 90 0.8 NE 13 19 7 10 1017.8 1017.9 0.0
25/10:00am 9.9 6.8 8.7 92 0.6 NE 15 20 8 11 1017.7 1017.8 0.0
25/09:30am 9.2 6.3 8.1 93 0.5 NE 13 17 7 9 1017.8 1017.9 0.0
25/09:00am 8.8 6.3 8.0 95 0.4 NE 11 15 6 8 1017.8 1017.9 0.0
25/08:30am 8.2 6.0 7.9 98 0.1 ENE 9 13 5 7 1017.9 1018.0 0.0
25/08:00am 7.2 5.2 7.1 99 0.0 ENE 7 11 4 6 1017.8 1017.9 0.0
25/07:30am 6.9 4.5 6.8 99 0.0 ENE 9 13 5 7 1017.7 1017.8 0.0
25/07:00am 6.6 4.5 6.5 99 0.0 ENE 7 9 4 5 1018.0 1018.1 0.0
25/06:30am 6.5 4.5 6.4 99 0.0 ENE 6 11 3 6 1017.9 1018.0 0.0
25/06:00am 6.3 4.3 6.2 99 0.0 ENE 6 9 3 5 1017.5 1017.6 0.0
25/05:30am 5.8 3.7 5.7 99 0.0 E 6 9 3 5 1017.8 1017.9 0.0
25/05:00am 4.7 3.5 4.6 99 0.0 CALM 0 0 0 0 1018.0 1018.1 0.0
25/04:30am 4.2 1.2 4.1 99 0.0 E 9 11 5 6 1017.8 1017.9 0.0
25/04:00am 4.3 3.0 4.2 99 0.0 CALM 0 0 0 0 1018.0 1018.1 0.0
25/03:30am 4.4 3.1 4.3 99 0.0 CALM 0 0 0 0 1018.1 1018.2 0.0
25/03:00am 4.7 3.5 4.6 99 0.0 CALM 0 0 0 0 1018.2 1018.3 0.0
25/02:30am 4.3 3.0 4.2 99 0.0 CALM 0 0 0 0 1018.5 1018.6 0.0
25/02:00am 4.5 3.3 4.4 99 0.0 CALM 0 2 0 1 1018.7 1018.8 0.0
25/01:30am 4.7 3.5 4.6 99 0.0 CALM 0 0 0 0 1018.8 1018.9 0.0
25/01:00am 4.3 3.0 4.2 99 0.0 CALM 0 0 0 0 1019.0 1019.1 0.0
25/12:30am 3.9 2.5 3.8 99 0.0 CALM 0 0 0 0 1019.4 1019.4 0.0
25/12:00am 4.8 1.9 4.7 99 0.0 ESE 9 11 5 6 1019.1 1019.2 0.0
 
Date/Time
EST
Temp
°C
App
Temp
°C
Dew
Point
Rel
Hum
%
Delta-T
°C
Wind Press
QNH
hPa
Press
MSL
hPa
Rain
since 9 am
mm
Dir
 
Spd
km/h
Gust
km/h
Spd
kts
Gust
kts
24/11:30pm 5.2 4.1 5.1 99 0.0 CALM 0 0 0 0 1019.4 1019.4 0.0
24/11:00pm 5.4 4.3 5.3 99 0.0 CALM 0 0 0 0 1019.4 1019.4 0.0
24/10:30pm 6.6 5.8 6.5 99 0.0 CALM 0 0 0 0 1019.6 1019.6 0.0
24/10:00pm 5.9 4.9 5.6 98 0.1 CALM 0 0 0 0 1019.9 1019.9 0.0
24/09:30pm 6.4 5.5 6.0 97 0.2 CALM 0 0 0 0 1020.2 1020.2 0.0
24/09:00pm 6.9 6.1 6.6 98 0.1 CALM 0 0 0 0 1020.5 1020.5 0.0
24/08:30pm 7.0 6.2 6.3 95 0.3 CALM 0 0 0 0 1020.3 1020.3 0.0
24/08:00pm 7.6 6.9 6.9 95 0.3 CALM 0 0 0 0 1020.3 1020.3 0.0
24/07:30pm 8.4 7.8 7.3 93 0.5 CALM 0 0 0 0 1020.3 1020.3 0.0
24/07:00pm 9.4 8.8 7.5 88 0.9 CALM 0 0 0 0 1020.1 1020.1 0.0
24/06:30pm 10.3 9.7 7.4 82 1.4 CALM 0 0 0 0 1020.0 1020.0 0.0
24/06:00pm 10.8 10.2 7.3 79 1.7 CALM 0 0 0 0 1020.0 1020.0 0.0
24/05:30pm 11.9 11.2 7.0 72 2.4 CALM 0 0 0 0 1019.6 1019.6 0.0
24/05:00pm 13.3 11.4 7.5 68 2.8 W 7 9 4 5 1019.5 1019.5 0.0
24/04:30pm 14.3 10.8 7.4 63 3.4 W 15 20 8 11 1019.7 1019.7 0.0
24/04:00pm 15.0 12.6 7.1 59 3.9 WSW 9 15 5 8 1019.3 1019.3 0.0
24/03:30pm 15.0 11.4 6.8 58 4.0 SW 15 19 8 10 1019.5 1019.5 0.0
24/03:00pm 15.3 11.9 7.8 61 3.8 WSW 15 24 8 13 1019.7 1019.7 0.0
24/02:30pm 15.4 11.7 7.9 61 3.8 WSW 17 22 9 12 1019.7 1019.7 0.0
24/02:00pm 15.4 11.6 7.7 60 3.8 W 17 28 9 15 1019.5 1019.5 0.0
24/01:30pm 15.0 11.6 7.8 62 3.6 WSW 15 30 8 16 1019.8 1019.8 0.0
24/01:00pm 14.3 10.4 6.9 61 3.6 WSW 17 24 9 13 1020.3 1020.3 0.0
24/12:30pm 14.6 10.5 7.9 64 3.4 WSW 19 26 10 14 1020.7 1020.7 0.0
24/12:00pm 14.0 9.4 8.0 67 3.0 SW 22 30 12 16 1021.1 1021.2 0.0
24/11:30am 13.6 8.6 8.0 69 2.8 WSW 24 33 13 18 1021.4 1021.5 0.0
24/11:00am 13.0 8.9 8.5 74 2.2 WSW 20 30 11 16 1021.9 1022.0 0.0
24/10:30am 11.8 8.1 9.4 85 1.2 W 19 22 10 12 1022.2 1022.3 0.0
24/10:00am 11.1 7.7 9.2 88 0.9 W 17 26 9 14 1022.4 1022.5 0.0
24/09:30am 10.6 7.3 9.4 92 0.6 W 17 24 9 13 1022.2 1022.3 0.0
24/09:00am 10.0 6.5 8.9 93 0.5 W 17 24 9 13 1021.9 1022.0 0.0
24/08:30am 9.3 5.9 9.0 98 0.1 W 17 22 9 12 1021.8 1021.9 0.0
24/08:00am 8.4 5.2 8.3 99 0.0 W 15 19 8 10 1021.6 1021.7 0.0
24/07:30am 8.4 5.5 8.1 98 0.1 W 13 19 7 10 1021.2 1021.3 0.0
24/07:00am 8.7 5.9 8.4 98 0.1 WNW 13 19 7 10 1021.1 1021.2 0.0
24/06:30am 8.8 6.0 8.5 98 0.1 W 13 17 7 9 1020.8 1020.8 0.0
24/06:00am 9.1 6.8 9.0 99 0.0 W 11 15 6 8 1020.8 1020.8 0.0
24/05:30am 9.0 6.3 8.9 99 0.0 W 13 17 7 9 1020.7 1020.7 0.0
24/05:00am 9.1 5.7 9.0 99 0.0 W 17 20 9 11 1020.7 1020.7 0.0
24/04:30am 8.8 6.4 8.7 99 0.0 W 11 15 6 8 1020.6 1020.6 0.0
24/04:00am 8.7 5.9 8.6 99 0.0 W 13 17 7 9 1020.4 1020.4 0.0
24/03:30am 9.1 6.4 9.0 99 0.0 W 13 19 7 10 1020.4 1020.4 0.0
24/03:00am 9.2 6.4 8.7 97 0.2 W 13 17 7 9 1020.4 1020.4 0.0
24/02:30am 9.4 7.1 8.9 97 0.2 W 11 19 6 10 1020.4 1020.4 0.0
24/02:00am 9.2 6.4 8.7 97 0.2 WSW 13 17 7 9 1020.4 1020.4 0.0
24/01:30am 9.8 6.0 9.2 96 0.3 WSW 19 28 10 15 1020.5 1020.5 0.0
24/01:00am 10.0 6.7 9.4 96 0.3 WSW 17 22 9 12 1020.4 1020.4 0.0
24/12:30am 9.6 6.5 9.0 96 0.3 W 15 20 8 11 1020.4 1020.4 0.0
24/12:00am 9.7 6.5 8.6 93 0.5 W 15 19 8 10 1020.3 1020.3 0.0
 
Date/Time
EST
Temp
°C
App
Temp
°C
Dew
Point
Rel
Hum
%
Delta-T
°C
Wind Press
QNH
hPa
Press
MSL
hPa
Rain
since 9 am
mm
Dir
 
Spd
km/h
Gust
km/h
Spd
kts
Gust
kts
23/11:30pm 9.7 7.3 8.8 94 0.4 WNW 11 15 6 8 1020.3 1020.3 0.0
23/11:00pm 10.2 8.7 9.0 92 0.6 WSW 7 9 4 5 1020.4 1020.4 0.0

Other Formats:

Comma delimited format used in spreadsheet applications
http://www.bom.gov.au/fwo/IDV60801/IDV60801.94875.axf

JavaScript Object Notation format (JSON) in row-major order
http://www.bom.gov.au/fwo/IDV60801/IDV60801.94875.json